createdAt,value
2018-12-02T00:05:44.901Z,1.67
2018-12-02T00:11:51.581Z,1.40
2018-12-02T00:18:02.665Z,1.10
2018-12-02T00:24:09.363Z,2.83
2018-12-02T00:30:17.804Z,1.20
2018-12-02T00:36:24.385Z,1.13
2018-12-02T00:42:31.092Z,0.90
2018-12-02T00:48:37.850Z,1.13
2018-12-02T00:54:44.545Z,1.27
2018-12-02T01:00:51.125Z,0.93
2018-12-02T01:06:57.937Z,1.37
2018-12-02T01:13:04.492Z,0.90
2018-12-02T01:19:11.070Z,0.97
2018-12-02T01:25:18.083Z,2.87
2018-12-02T01:31:24.683Z,0.90
2018-12-02T01:37:31.663Z,0.80
2018-12-02T01:43:38.326Z,0.60
2018-12-02T01:49:44.905Z,0.70
2018-12-02T01:55:51.514Z,0.60
2018-12-02T02:01:58.171Z,1.43
2018-12-02T02:08:05.047Z,0.70
2018-12-02T02:14:11.721Z,2.50
2018-12-02T02:20:30.869Z,1.90
2018-12-02T02:26:37.463Z,1.77
2018-12-02T02:32:44.081Z,0.63
2018-12-02T02:38:50.700Z,1.97
2018-12-02T02:44:57.285Z,1.07
2018-12-02T02:51:03.882Z,0.93
2018-12-02T02:57:10.443Z,1.10
2018-12-02T03:03:17.039Z,0.90
2018-12-02T03:09:23.977Z,0.90
2018-12-02T03:15:30.569Z,1.50
2018-12-02T03:21:37.348Z,0.97
2018-12-02T03:27:43.984Z,0.90
2018-12-02T03:33:50.592Z,2.30
2018-12-02T03:39:57.145Z,0.90
2018-12-02T03:46:03.716Z,1.10
2018-12-02T03:52:10.275Z,1.83
2018-12-02T03:58:16.973Z,0.80
2018-12-02T04:04:23.633Z,0.80
2018-12-02T04:10:30.372Z,0.93
2018-12-02T04:16:37.024Z,1.23
2018-12-02T04:22:43.862Z,1.33
2018-12-02T04:28:51.085Z,0.67
2018-12-02T04:34:57.717Z,1.03
2018-12-02T04:41:04.482Z,0.70
2018-12-02T04:47:11.040Z,1.40
2018-12-02T04:53:17.707Z,0.53
2018-12-02T04:59:24.626Z,0.83
2018-12-02T05:05:32.165Z,1.30
2018-12-02T05:11:38.774Z,0.40
2018-12-02T05:17:45.301Z,0.50
2018-12-02T05:23:52.002Z,0.83
2018-12-02T05:29:58.991Z,0.50
2018-12-02T05:36:05.568Z,0.60
2018-12-02T05:42:29.838Z,0.50
2018-12-02T05:48:36.408Z,0.57
2018-12-02T05:54:43.224Z,0.40
2018-12-02T06:00:49.780Z,0.50
2018-12-02T06:06:56.575Z,0.40
2018-12-02T06:13:03.329Z,0.50
2018-12-02T06:19:10.000Z,0.50
2018-12-02T06:25:16.649Z,0.53
2018-12-02T06:31:23.380Z,0.60
2018-12-02T06:37:30.022Z,1.17
2018-12-02T06:43:36.621Z,1.00
2018-12-02T06:49:43.458Z,1.13
2018-12-02T06:56:11.635Z,1.33
2018-12-02T07:02:57.107Z,0.80
2018-12-02T07:09:04.637Z,0.90
2018-12-02T07:15:11.237Z,1.27
2018-12-02T07:21:27.277Z,1.00
2018-12-02T07:27:33.865Z,0.90
2018-12-02T07:33:40.447Z,1.33
2018-12-02T07:40:30.131Z,1.53
2018-12-02T07:46:36.971Z,1.37
2018-12-02T07:52:43.566Z,1.33
2018-12-02T07:58:50.140Z,1.33
2018-12-02T08:04:56.704Z,0.87
2018-12-02T08:11:03.291Z,1.63
2018-12-02T08:17:10.139Z,1.67
2018-12-02T08:23:16.799Z,1.70
2018-12-02T08:29:23.688Z,2.07
2018-12-02T08:35:31.252Z,1.33
2018-12-02T08:41:37.895Z,3.03
2018-12-02T08:47:45.556Z,1.50
2018-12-02T08:53:52.424Z,1.83
2018-12-02T08:59:59.257Z,1.70
2018-12-02T09:06:05.895Z,1.90
2018-12-02T09:12:12.720Z,2.20
2018-12-02T09:18:19.465Z,1.93
2018-12-02T09:24:26.154Z,2.33
2018-12-02T09:30:34.478Z,2.30
2018-12-02T09:36:41.125Z,2.20
2018-12-02T09:42:55.277Z,1.87
2018-12-02T09:49:01.988Z,2.13
2018-12-02T09:55:15.592Z,2.30
2018-12-02T10:01:22.892Z,2.60
2018-12-02T10:07:29.543Z,2.50
2018-12-02T10:13:36.099Z,2.60
2018-12-02T10:19:42.961Z,2.93
2018-12-02T10:25:49.635Z,3.10
2018-12-02T10:31:56.431Z,3.17
2018-12-02T10:38:03.035Z,2.90
2018-12-02T10:44:09.909Z,3.47
2018-12-02T10:50:36.120Z,3.23
2018-12-02T10:56:42.776Z,4.00
2018-12-02T11:02:50.501Z,3.40
2018-12-02T11:08:57.113Z,3.80
2018-12-02T11:15:03.906Z,3.70
2018-12-02T11:21:10.831Z,3.40
2018-12-02T11:27:17.480Z,2.50
2018-12-02T11:33:24.439Z,2.57
2018-12-02T11:39:31.223Z,2.00
2018-12-02T11:45:38.106Z,2.10
2018-12-02T11:51:45.038Z,2.30
2018-12-02T11:57:52.264Z,2.40
2018-12-02T12:03:58.991Z,3.13
2018-12-02T12:10:05.908Z,2.73
2018-12-02T12:16:12.511Z,3.23
2018-12-02T12:22:19.161Z,3.40
2018-12-02T12:28:25.741Z,3.57
2018-12-02T12:34:32.353Z,4.00
2018-12-02T12:40:40.265Z,4.30
2018-12-02T12:46:46.964Z,4.00
2018-12-02T12:52:53.540Z,5.50
2018-12-02T12:59:00.352Z,5.50
2018-12-02T13:05:08.143Z,4.97
2018-12-02T13:11:14.996Z,4.20
2018-12-02T13:17:21.676Z,3.47
2018-12-02T13:23:28.301Z,3.57
2018-12-02T13:29:34.938Z,3.20
2018-12-02T13:35:42.414Z,2.90
2018-12-02T13:41:49.179Z,3.63
2018-12-02T13:47:55.934Z,3.10
2018-12-02T13:54:20.036Z,3.50
2018-12-02T14:00:28.052Z,3.67
2018-12-02T14:06:34.914Z,3.13
2018-12-02T14:12:42.854Z,2.83
2018-12-02T14:18:49.857Z,2.93
2018-12-02T14:24:56.545Z,4.17
2018-12-02T14:31:03.348Z,4.47
2018-12-02T14:37:10.301Z,3.43
2018-12-02T14:43:16.968Z,3.53
2018-12-02T14:49:23.626Z,4.07
2018-12-02T14:55:30.273Z,4.00
2018-12-02T15:01:37.046Z,3.90
2018-12-02T15:07:44.771Z,5.70
2018-12-02T15:13:52.492Z,6.20
2018-12-02T15:19:59.231Z,4.70
2018-12-02T15:26:05.839Z,3.77
2018-12-02T15:32:12.592Z,4.43
2018-12-02T15:38:19.629Z,4.83
2018-12-02T15:44:26.347Z,5.07
2018-12-02T15:50:32.922Z,5.37
2018-12-02T15:56:39.693Z,5.70
2018-12-02T16:02:46.767Z,6.40
2018-12-02T16:08:53.537Z,6.50
2018-12-02T16:15:00.382Z,7.90
2018-12-02T16:21:07.344Z,5.50
2018-12-02T16:27:14.522Z,6.10
2018-12-02T16:33:21.306Z,6.20
2018-12-02T16:39:28.284Z,5.83
2018-12-02T16:45:34.954Z,4.73
2018-12-02T16:51:41.617Z,5.23
2018-12-02T16:58:14.856Z,4.53
2018-12-02T17:04:22.357Z,4.73
2018-12-02T17:10:29.465Z,5.27
2018-12-02T17:16:36.592Z,5.20
2018-12-02T17:22:43.793Z,4.90
2018-12-02T17:28:50.703Z,4.50
2018-12-02T17:34:57.652Z,5.13
2018-12-02T17:41:04.518Z,4.07
2018-12-02T17:47:11.581Z,2.93
2018-12-02T17:53:18.440Z,3.03
2018-12-02T17:59:25.249Z,2.80
2018-12-02T18:05:43.417Z,2.87
2018-12-02T18:11:50.306Z,4.13
2018-12-02T18:17:58.503Z,4.80
2018-12-02T18:24:05.486Z,4.30
2018-12-02T18:30:20.145Z,3.80
2018-12-02T18:36:33.084Z,3.27
2018-12-02T18:42:39.669Z,2.93
2018-12-02T18:48:46.384Z,3.53
2018-12-02T18:54:53.378Z,2.87
2018-12-02T19:01:00.112Z,2.30
2018-12-02T19:07:06.847Z,1.80
2018-12-02T19:13:13.609Z,2.00
2018-12-02T19:19:20.533Z,2.43
2018-12-02T19:25:29.508Z,1.93
2018-12-02T19:31:36.303Z,1.90
2018-12-02T19:37:43.730Z,1.70
2018-12-02T19:43:50.645Z,2.73
2018-12-02T19:49:57.613Z,3.10
2018-12-02T19:56:04.206Z,2.77
2018-12-02T20:02:10.922Z,1.70
2018-12-02T20:08:18.869Z,1.50
2018-12-02T20:14:26.290Z,1.63
2018-12-02T20:20:49.711Z,1.63
2018-12-02T20:26:57.152Z,1.57
2018-12-02T20:33:03.865Z,1.60
2018-12-02T20:39:13.099Z,2.80
2018-12-02T20:45:21.157Z,2.93
2018-12-02T20:51:30.733Z,2.90
2018-12-02T20:57:37.456Z,3.40
2018-12-02T21:03:47.593Z,3.17
2018-12-02T21:09:54.927Z,3.57
2018-12-02T21:16:02.083Z,4.00
2018-12-02T21:22:09.323Z,5.10
2018-12-02T21:28:18.390Z,5.93
2018-12-02T21:34:25.118Z,6.57
2018-12-02T21:40:31.722Z,5.57
2018-12-02T21:46:38.344Z,5.67
2018-12-02T21:52:45.050Z,4.97
2018-12-02T21:58:51.765Z,5.17
2018-12-02T22:04:58.372Z,4.33
2018-12-02T22:11:04.992Z,5.07
2018-12-02T22:17:11.717Z,4.70
2018-12-02T22:23:18.355Z,5.50
2018-12-02T22:29:24.943Z,5.10
2018-12-02T22:35:32.101Z,5.43
2018-12-02T22:41:39.039Z,6.67
2018-12-02T22:47:45.839Z,5.83
2018-12-02T22:53:52.481Z,6.07
2018-12-02T22:59:59.083Z,6.23
2018-12-02T23:06:05.872Z,6.93
2018-12-02T23:12:58.182Z,5.83
2018-12-02T23:19:04.808Z,6.03
2018-12-02T23:25:15.725Z,6.00
2018-12-02T23:31:22.507Z,5.53
2018-12-02T23:37:29.348Z,5.70
2018-12-02T23:43:36.067Z,6.13
2018-12-02T23:49:42.715Z,6.87
2018-12-02T23:55:49.366Z,6.83
